Saint Charles, Minnesota
Current Conditions -  °F | °C
As of 9:54 PM on Sunday 21 Dec 2014 (Local Time) from KONA Reporting Station
Light Rain Light Rain  
Wind Chill: -1°   Ceiling: 1200
Heat Index:   Visibility: 10mi
Dew Point:   Wind: 10mph
Humidity: 87%   Direction: 150°SSE
Pressure: 29.82"   Gusts: 17mph
Location:  43.97°N, 92.06°W
Report Text: KONA 220354Z AUTO 15009G15KT 10SM -RA OVC012 03/01 A2982 RMK AO2
Loading
Personal Weather Stations






























Interactive Weather Map New forecast layout! Learn more

10-Day Weather Forecast

Advertisements
Track Severe Weather on mobile